Time;durP1;ratioP1;P1;durP2;ratioP2;P2;SDS_P1;SDS_P2;PMS_P1;PMS_P2;Temp;Humidity;BMP_temperature;BMP_pressure;BME280_temperature;BME280_humidity;BME280_pressure;Samples;Min_cycle;Max_cycle;Signal;HPM_P1;HPM_P2
2022/01/24 00:01:46;;;;;;;18.55;14.02;;;5.50;93.30;;;;;;5091971;28;20050;-81
2022/01/24 00:04:12;;;;;;;17.38;13.43;;;5.50;93.20;;;;;;5074374;28;20056;-81
2022/01/24 00:06:40;;;;;;;19.33;13.98;;;5.50;93.30;;;;;;5091883;28;20040;-80
2022/01/24 00:09:06;;;;;;;16.85;13.07;;;5.50;93.30;;;;;;5075611;28;20040;-81
2022/01/24 00:28:01;;;;;;;14.55;11.32;;;5.40;93.30;;;;;;5074464;28;20080;-80
2022/01/24 00:30:27;;;;;;;16.00;12.48;;;5.30;93.30;;;;;;5074908;28;20068;-81
2022/01/24 00:32:53;;;;;;;14.02;10.43;;;5.30;93.30;;;;;;5058178;28;20066;-81
2022/01/24 00:35:18;;;;;;;15.27;10.82;;;5.30;93.30;;;;;;5074777;28;20048;-81
2022/01/24 00:37:44;;;;;;;16.38;12.05;;;5.30;93.20;;;;;;5074882;28;20075;-81
2022/01/24 00:40:11;;;;;;;15.98;11.70;;;5.30;93.20;;;;;;5074884;28;20461;-81
2022/01/24 00:55:21;;;;;;;12.68;10.82;;;5.20;93.20;;;;;;5077353;28;20135;-80
2022/01/24 00:57:47;;;;;;;14.00;11.68;;;5.20;93.30;;;;;;5091750;28;20089;-80
2022/01/24 01:00:13;;;;;;;12.50;10.60;;;5.20;93.30;;;;;;5091394;28;20492;-81
2022/01/24 01:02:39;;;;;;;16.77;11.00;;;5.20;93.30;;;;;;5091270;28;20070;-81
2022/01/24 01:05:32;;;;;;;12.63;10.02;;;5.20;93.40;;;;;;5074371;28;20048;-80
2022/01/24 01:18:48;;;;;;;14.40;10.95;;;5.20;93.40;;;;;;5095562;28;20396;-81
2022/01/24 01:21:15;;;;;;;14.30;10.57;;;5.20;93.40;;;;;;5095045;28;20040;-80
2022/01/24 01:23:49;;;;;;;11.80;9.77;;;5.20;93.30;;;;;;5078201;28;20046;-80
2022/01/24 01:26:30;;;;;;;11.98;9.90;;;5.10;93.30;;;;;;5095169;28;20388;-80
2022/01/24 01:29:05;;;;;;;12.18;9.40;;;5.10;93.30;;;;;;5080552;28;20392;-80
2022/01/24 01:31:50;;;;;;;13.48;9.80;;;5.20;93.30;;;;;;5095247;28;20466;-80
2022/01/24 01:55:42;;;;;;;10.60;7.97;;;5.10;92.70;;;;;;5094145;28;20480;-80
2022/01/24 01:58:19;;;;;;;9.73;7.97;;;5.10;92.80;;;;;;5094303;28;20553;-81
2022/01/24 02:00:54;;;;;;;11.50;8.70;;;5.10;92.70;;;;;;5094332;28;20044;-81
2022/01/24 02:03:22;;;;;;;11.90;8.65;;;5.10;92.70;;;;;;5060564;28;20468;-81
2022/01/24 02:05:47;;;;;;;12.23;8.07;;;5.10;92.50;;;;;;5093926;28;20429;-80
2022/01/24 02:08:13;;;;;;;13.43;8.68;;;5.10;92.70;;;;;;5094127;28;20085;-81
2022/01/24 02:10:41;;;;;;;11.88;9.35;;;5.10;92.70;;;;;;5077217;28;20377;-80
2022/01/24 02:13:08;;;;;;;10.65;8.32;;;5.10;92.70;;;;;;5077451;28;20048;-81
2022/01/24 02:18:34;;;;;;;11.23;8.77;;;5.10;92.80;;;;;;5079654;28;20086;-80
2022/01/24 02:26:05;;;;;;;13.13;9.23;;;5.10;92.90;;;;;;5093763;28;20040;-81
2022/01/24 02:28:45;;;;;;;11.25;9.18;;;5.10;92.90;;;;;;5093059;28;20079;-81
2022/01/24 02:33:46;;;;;;;11.55;8.63;;;5.10;92.70;;;;;;5093982;28;20055;-81
2022/01/24 02:36:23;;;;;;;9.38;8.15;;;5.10;92.80;;;;;;5076922;28;20126;-81
2022/01/24 02:49:35;;;;;;;10.50;8.65;;;5.00;92.40;;;;;;5076850;28;20047;-81
2022/01/24 02:52:08;;;;;;;12.57;8.88;;;5.00;92.60;;;;;;5093287;28;20411;-81
2022/01/24 02:54:36;;;;;;;9.88;8.13;;;5.00;92.50;;;;;;5077195;28;20078;-81
2022/01/24 02:57:04;;;;;;;12.57;8.27;;;5.00;92.60;;;;;;5076291;28;20090;-80
2022/01/24 02:59:30;;;;;;;11.48;9.38;;;5.00;92.40;;;;;;5076475;28;20511;-81
2022/01/24 03:01:56;;;;;;;12.30;8.93;;;5.00;92.40;;;;;;5092944;28;20083;-80
2022/01/24 03:04:22;;;;;;;9.95;8.60;;;5.00;92.50;;;;;;5075938;28;20159;-80
2022/01/24 03:06:48;;;;;;;10.65;9.18;;;5.00;92.40;;;;;;5093110;28;20097;-81
2022/01/24 03:09:14;;;;;;;12.05;9.18;;;5.00;92.60;;;;;;5076040;28;20028;-81
2022/01/24 03:14:17;;;;;;;12.57;10.05;;;5.00;92.60;;;;;;5092846;28;20040;-81
2022/01/24 03:16:43;;;;;;;10.75;9.00;;;5.00;92.40;;;;;;5076406;28;20051;-81
2022/01/24 03:19:09;;;;;;;14.18;10.35;;;5.00;92.60;;;;;;5093035;28;20054;-80
2022/01/24 03:21:34;;;;;;;13.77;10.15;;;5.00;92.70;;;;;;5059116;28;20507;-81
2022/01/24 03:24:00;;;;;;;12.32;9.10;;;5.00;92.70;;;;;;5076043;28;20072;-81
2022/01/24 03:26:26;;;;;;;13.07;10.05;;;5.00;92.70;;;;;;5075660;28;20373;-81
2022/01/24 03:28:52;;;;;;;11.88;10.05;;;5.00;92.90;;;;;;5075689;28;20050;-80
2022/01/24 03:31:18;;;;;;;11.52;9.50;;;5.00;92.80;;;;;;5075658;28;20036;-80
2022/01/24 03:33:44;;;;;;;14.35;10.50;;;5.00;92.80;;;;;;5092565;28;20036;-80
2022/01/24 03:36:09;;;;;;;12.88;10.02;;;5.00;93.10;;;;;;5075502;28;20032;-80
2022/01/24 03:38:35;;;;;;;14.35;10.70;;;4.90;93.10;;;;;;5092108;28;20044;-80
2022/01/24 03:41:01;;;;;;;13.13;10.60;;;4.90;93.20;;;;;;5058506;28;20504;-80
2022/01/24 03:43:27;;;;;;;12.02;9.93;;;4.90;93.40;;;;;;5092188;28;20090;-80
2022/01/24 03:48:56;;;;;;;16.20;11.13;;;4.90;93.30;;;;;;5047010;28;20090;-81
2022/01/24 03:51:23;;;;;;;15.63;11.30;;;4.90;93.30;;;;;;5092239;28;20047;-80
2022/01/24 03:53:50;;;;;;;15.88;11.25;;;4.90;93.40;;;;;;5075155;28;20519;-81
2022/01/24 03:56:16;;;;;;;15.05;11.05;;;4.80;93.50;;;;;;5075167;28;20036;-81
2022/01/24 03:58:43;;;;;;;14.45;11.45;;;4.80;93.60;;;;;;5075268;28;20078;-81
2022/01/24 04:01:09;;;;;;;14.63;11.35;;;4.80;93.50;;;;;;5092312;28;20457;-81
2022/01/24 04:03:37;;;;;;;14.88;11.57;;;4.80;93.50;;;;;;5075747;28;20093;-81
2022/01/24 04:06:04;;;;;;;17.83;12.10;;;4.80;93.50;;;;;;5078509;28;20101;-81
2022/01/24 04:08:30;;;;;;;16.48;11.55;;;4.90;93.50;;;;;;5095161;28;20039;-81
2022/01/24 04:10:57;;;;;;;14.25;11.30;;;4.80;93.70;;;;;;5078729;28;20043;-81
2022/01/24 04:16:52;;;;;;;18.23;12.45;;;4.80;93.60;;;;;;5095180;28;20044;-81
2022/01/24 04:19:06;;;;;;;19.00;12.23;;;4.90;93.50;;;;;;5081705;28;20058;-81
2022/01/24 04:21:35;;;;;;;14.90;12.02;;;4.90;93.60;;;;;;5081102;28;20054;-81
2022/01/24 04:24:09;;;;;;;18.83;13.50;;;4.80;93.80;;;;;;5078960;28;20064;-81
2022/01/24 04:26:36;;;;;;;15.32;12.40;;;4.80;93.90;;;;;;5095071;28;20051;-81
2022/01/24 04:29:04;;;;;;;15.68;12.65;;;4.80;93.80;;;;;;5095118;28;20480;-81
2022/01/24 04:31:30;;;;;;;16.08;12.27;;;4.80;93.70;;;;;;5095062;28;20035;-81
2022/01/24 04:33:56;;;;;;;16.05;11.63;;;4.80;93.80;;;;;;5078449;28;20091;-81
2022/01/24 04:36:22;;;;;;;19.65;14.18;;;4.80;93.80;;;;;;5078208;28;20118;-81
2022/01/24 04:38:49;;;;;;;16.77;12.60;;;4.80;94.00;;;;;;5094958;28;20135;-81
2022/01/24 04:41:22;;;;;;;16.48;12.40;;;4.70;94.00;;;;;;5094982;28;20044;-81
2022/01/24 04:54:40;;;;;;;16.55;12.38;;;4.80;94.10;;;;;;5054611;28;20048;-81
2022/01/24 04:57:11;;;;;;;15.05;11.07;;;4.80;94.00;;;;;;5084123;28;20084;-81
2022/01/24 04:59:38;;;;;;;15.63;11.55;;;4.80;94.00;;;;;;5098950;28;20040;-81
2022/01/24 05:02:05;;;;;;;14.90;10.93;;;4.80;94.00;;;;;;5082035;28;20376;-81
2022/01/24 05:04:31;;;;;;;15.40;12.30;;;4.80;93.90;;;;;;5081831;28;20095;-81
2022/01/24 05:06:57;;;;;;;16.33;12.23;;;4.80;94.00;;;;;;5098872;28;20040;-81
2022/01/24 05:09:23;;;;;;;16.20;11.45;;;4.80;94.10;;;;;;5065358;28;20474;-81
2022/01/24 05:11:55;;;;;;;18.42;13.38;;;4.80;94.00;;;;;;5081815;28;20476;-81
2022/01/24 05:25:18;;;;;;;20.38;14.65;;;4.80;94.10;;;;;;5084109;28;20039;-81
2022/01/24 05:27:43;;;;;;;19.30;13.50;;;4.80;94.10;;;;;;5064897;28;20065;-81
2022/01/24 05:30:10;;;;;;;16.90;11.82;;;4.80;94.20;;;;;;5064738;28;20425;-81
2022/01/24 05:32:35;;;;;;;17.13;12.43;;;4.80;94.30;;;;;;5081346;28;20071;-81
2022/01/24 05:35:01;;;;;;;18.15;12.70;;;4.70;94.30;;;;;;5064684;28;20075;-81
2022/01/24 05:37:27;;;;;;;17.88;12.45;;;4.80;94.20;;;;;;5064545;28;20038;-81
2022/01/24 05:39:53;;;;;;;18.92;12.98;;;4.80;94.20;;;;;;5081264;28;20041;-81
2022/01/24 05:42:21;;;;;;;17.02;12.40;;;4.80;94.30;;;;;;5081027;28;20157;-81
2022/01/24 05:44:50;;;;;;;19.85;12.07;;;4.80;94.20;;;;;;5081477;28;20044;-81
2022/01/24 05:47:16;;;;;;;17.75;13.45;;;4.80;94.20;;;;;;5080933;28;20032;-81
2022/01/24 05:49:42;;;;;;;17.17;12.15;;;4.80;94.20;;;;;;5097822;28;20076;-81
2022/01/24 05:52:09;;;;;;;19.73;12.82;;;4.80;94.20;;;;;;5097861;28;20040;-81
2022/01/24 05:54:37;;;;;;;18.48;13.30;;;4.80;94.20;;;;;;5081169;28;20445;-81
2022/01/24 05:57:03;;;;;;;18.98;12.68;;;4.80;94.20;;;;;;5080918;28;20498;-81
2022/01/24 05:59:29;;;;;;;20.10;13.43;;;4.80;94.20;;;;;;5081136;28;20445;-81
2022/01/24 06:01:55;;;;;;;18.02;12.88;;;4.80;94.20;;;;;;5079803;28;20035;-81
2022/01/24 06:04:20;;;;;;;20.45;13.27;;;4.80;94.00;;;;;;5080727;28;20101;-81
2022/01/24 06:06:46;;;;;;;23.42;14.23;;;4.80;94.00;;;;;;5080913;28;20472;-81
2022/01/24 06:09:12;;;;;;;19.95;14.27;;;4.80;94.10;;;;;;5080740;28;20042;-81
2022/01/24 06:11:38;;;;;;;18.65;13.38;;;4.80;93.90;;;;;;5097721;28;20461;-81
2022/01/24 06:14:04;;;;;;;18.85;12.80;;;4.80;93.80;;;;;;5063969;28;20475;-81
2022/01/24 06:16:30;;;;;;;19.25;13.05;;;4.80;93.80;;;;;;5097339;28;20039;-81
2022/01/24 06:18:56;;;;;;;18.83;13.05;;;4.80;93.80;;;;;;5097647;28;20388;-81
2022/01/24 06:21:22;;;;;;;17.60;12.40;;;4.80;93.70;;;;;;5097575;28;20027;-81
2022/01/24 06:23:48;;;;;;;16.15;12.40;;;4.80;93.60;;;;;;5080376;28;20040;-81
2022/01/24 06:26:14;;;;;;;17.60;13.07;;;4.80;93.60;;;;;;5097400;28;20454;-81
2022/01/24 06:28:40;;;;;;;20.02;13.70;;;4.80;93.50;;;;;;5097707;28;20083;-81
2022/01/24 06:31:06;;;;;;;20.25;13.68;;;4.80;93.60;;;;;;5097174;28;20042;-81
2022/01/24 06:33:33;;;;;;;25.13;14.68;;;4.80;93.60;;;;;;5097285;28;20039;-81
2022/01/24 06:35:59;;;;;;;18.40;13.50;;;4.90;93.80;;;;;;5080133;28;20122;-81
2022/01/24 06:38:25;;;;;;;16.20;11.98;;;4.90;93.40;;;;;;5096915;28;20039;-81
2022/01/24 06:40:51;;;;;;;18.00;13.90;;;4.90;93.50;;;;;;5096733;28;20040;-81
2022/01/24 06:43:17;;;;;;;19.33;14.00;;;4.90;93.50;;;;;;5079941;28;20077;-81
2022/01/24 06:45:43;;;;;;;17.63;13.57;;;4.90;93.60;;;;;;5080175;28;20044;-82
2022/01/24 06:48:09;;;;;;;20.55;14.23;;;4.90;93.40;;;;;;5080207;28;20031;-81
2022/01/24 06:50:34;;;;;;;21.67;14.45;;;4.90;93.20;;;;;;5080247;28;20032;-81
2022/01/24 06:53:00;;;;;;;18.95;13.45;;;4.90;93.00;;;;;;5063676;28;20448;-82
2022/01/24 06:55:26;;;;;;;19.48;12.98;;;4.90;92.90;;;;;;5063741;28;20036;-82
2022/01/24 06:57:52;;;;;;;22.67;14.02;;;4.80;92.50;;;;;;5096839;28;20043;-81
2022/01/24 07:00:22;;;;;;;20.33;13.95;;;4.90;92.70;;;;;;5080389;28;20035;-81
2022/01/24 07:02:48;;;;;;;21.23;14.68;;;4.90;92.80;;;;;;5097096;28;20101;-82
2022/01/24 07:05:14;;;;;;;21.42;14.57;;;4.90;92.60;;;;;;5063308;28;20411;-81
2022/01/24 07:07:39;;;;;;;22.05;14.50;;;4.90;92.70;;;;;;5063329;28;20046;-81
2022/01/24 07:10:06;;;;;;;20.20;13.40;;;4.90;92.80;;;;;;5079943;28;20035;-81
2022/01/24 07:12:31;;;;;;;21.10;14.70;;;4.90;92.20;;;;;;5097032;28;20455;-81
2022/01/24 07:15:03;;;;;;;19.58;14.25;;;4.80;92.10;;;;;;5063059;28;20074;-82
2022/01/24 07:17:45;;;;;;;19.23;13.27;;;4.90;92.30;;;;;;5079272;28;20050;-80
2022/01/24 07:20:11;;;;;;;18.48;13.20;;;4.90;92.30;;;;;;5081201;28;20062;-81
2022/01/24 07:22:36;;;;;;;20.35;13.90;;;4.90;92.40;;;;;;5095979;28;20036;-81
2022/01/24 07:25:03;;;;;;;21.15;13.70;;;4.90;92.20;;;;;;5095837;28;20035;-80
2022/01/24 07:27:29;;;;;;;19.55;14.20;;;4.90;92.10;;;;;;5095877;28;20078;-81
2022/01/24 07:29:55;;;;;;;22.15;14.35;;;4.90;92.40;;;;;;5077947;28;20070;-81
2022/01/24 07:32:20;;;;;;;21.92;15.18;;;4.90;92.40;;;;;;5078488;28;20046;-80
2022/01/24 07:34:46;;;;;;;21.08;14.63;;;4.90;92.00;;;;;;5095386;28;20050;-81
2022/01/24 07:37:13;;;;;;;20.98;14.63;;;4.90;92.00;;;;;;5078785;28;20039;-81
2022/01/24 07:39:38;;;;;;;21.88;14.55;;;4.90;92.00;;;;;;5095739;28;20488;-81
2022/01/24 07:42:15;;;;;;;24.50;16.98;;;4.90;92.00;;;;;;5078510;28;20053;-81
2022/01/24 07:44:41;;;;;;;23.95;16.05;;;4.90;92.30;;;;;;5063376;28;20130;-80
2022/01/24 07:47:10;;;;;;;26.13;16.05;;;4.90;92.00;;;;;;5095745;28;20144;-82
2022/01/24 07:49:36;;;;;;;24.13;17.30;;;4.90;90.90;;;;;;5095014;28;20130;-83
2022/01/24 07:52:03;;;;;;;22.67;15.90;;;4.90;91.20;;;;;;5078600;28;20094;-82
2022/01/24 07:54:29;;;;;;;22.45;16.27;;;4.90;90.70;;;;;;5077901;28;20097;-83
2022/01/24 07:56:55;;;;;;;24.45;16.77;;;5.00;91.30;;;;;;5061648;28;20111;-81
2022/01/24 07:59:20;;;;;;;24.42;16.13;;;5.00;91.20;;;;;;5094879;28;20483;-81
2022/01/24 08:01:48;;;;;;;26.67;16.95;;;5.00;91.30;;;;;;5094669;28;20072;-81
2022/01/24 08:04:14;;;;;;;24.45;16.80;;;5.00;91.50;;;;;;5078187;28;20056;-82
2022/01/24 08:06:39;;;;;;;23.92;16.08;;;5.00;91.40;;;;;;5078489;28;20096;-81
2022/01/24 08:09:09;;;;;;;24.33;15.75;;;4.90;90.90;;;;;;5094770;28;20040;-82
2022/01/24 08:11:36;;;;;;;25.48;16.13;;;5.00;91.20;;;;;;5079012;28;20051;-82
2022/01/24 08:14:02;;;;;;;24.98;15.80;;;5.00;91.50;;;;;;5078395;28;20214;-82
2022/01/24 08:16:28;;;;;;;23.42;15.85;;;5.00;91.30;;;;;;5061580;28;20044;-82
2022/01/24 08:18:55;;;;;;;24.77;17.10;;;5.00;91.00;;;;;;5094930;28;20035;-82
2022/01/24 08:21:21;;;;;;;27.38;16.70;;;5.00;91.20;;;;;;5095337;28;20040;-81
2022/01/24 08:23:48;;;;;;;26.65;17.48;;;5.00;91.20;;;;;;5094912;28;20491;-81
2022/01/24 08:26:14;;;;;;;30.08;20.70;;;4.90;91.00;;;;;;5077682;28;20519;-81
2022/01/24 08:28:40;;;;;;;30.65;18.10;;;5.00;91.10;;;;;;5061586;28;20043;-81
2022/01/24 08:31:06;;;;;;;28.63;17.90;;;5.00;91.20;;;;;;5061468;28;20067;-82
2022/01/24 08:33:31;;;;;;;26.85;17.33;;;5.00;91.10;;;;;;5077726;28;20039;-82
2022/01/24 08:35:57;;;;;;;27.60;18.10;;;5.00;90.30;;;;;;5094938;28;20039;-82
2022/01/24 08:38:23;;;;;;;29.35;17.63;;;5.00;90.80;;;;;;5078260;28;20086;-82
2022/01/24 08:40:52;;;;;;;30.05;19.02;;;5.00;90.50;;;;;;5061530;28;20047;-82
2022/01/24 08:43:35;;;;;;;25.73;17.20;;;5.00;90.50;;;;;;5094993;28;20158;-81
2022/01/24 08:46:01;;;;;;;25.90;17.60;;;5.00;90.40;;;;;;5094508;28;20105;-81
2022/01/24 08:48:29;;;;;;;28.83;19.02;;;5.10;90.40;;;;;;5094708;28;20040;-80
2022/01/24 08:50:56;;;;;;;26.80;17.77;;;5.00;89.90;;;;;;5078404;28;20387;-79
2022/01/24 08:53:23;;;;;;;27.15;17.17;;;5.10;90.00;;;;;;5077946;28;20035;-79
2022/01/24 08:55:49;;;;;;;27.35;17.55;;;5.00;90.50;;;;;;5094735;28;20063;-82
2022/01/24 08:58:15;;;;;;;27.77;18.23;;;5.00;90.30;;;;;;5094911;28;20426;-81
2022/01/24 09:00:45;;;;;;;30.42;19.90;;;5.00;90.50;;;;;;5077725;28;20093;-81
2022/01/24 09:03:13;;;;;;;28.83;19.30;;;5.00;90.10;;;;;;5077908;28;20084;-82
2022/01/24 09:05:40;;;;;;;29.73;18.88;;;5.00;89.60;;;;;;5077741;28;20047;-80
2022/01/24 09:08:06;;;;;;;30.27;19.67;;;5.00;89.90;;;;;;5094773;28;20145;-79
2022/01/24 09:10:34;;;;;;;32.05;21.08;;;5.00;89.90;;;;;;5078000;28;20120;-78
2022/01/24 09:13:00;;;;;;;27.70;19.48;;;5.00;90.00;;;;;;5094672;28;20050;-77
2022/01/24 09:15:26;;;;;;;29.70;19.40;;;5.00;90.40;;;;;;5094633;28;20383;-77
2022/01/24 09:17:52;;;;;;;28.38;19.52;;;5.10;90.40;;;;;;5077971;28;20373;-76
2022/01/24 09:20:18;;;;;;;29.33;19.40;;;5.00;89.30;;;;;;5094233;28;20445;-78
2022/01/24 09:22:45;;;;;;;31.25;20.33;;;5.10;90.00;;;;;;5094165;28;20035;-76
2022/01/24 09:25:13;;;;;;;27.55;18.20;;;5.10;89.40;;;;;;5077179;28;20051;-78
2022/01/24 09:27:39;;;;;;;29.33;18.77;;;5.10;88.60;;;;;;5094569;28;20040;-79
2022/01/24 09:30:07;;;;;;;28.55;19.15;;;5.10;89.30;;;;;;5094586;28;20040;-78
2022/01/24 09:32:33;;;;;;;32.83;21.30;;;5.10;89.80;;;;;;5094530;28;20050;-79
2022/01/24 09:34:59;;;;;;;30.63;19.58;;;5.20;89.80;;;;;;5077569;28;20040;-80
2022/01/24 09:37:25;;;;;;;30.85;20.58;;;5.10;88.80;;;;;;5078329;28;20112;-79
2022/01/24 09:39:51;;;;;;;31.70;21.10;;;5.10;88.10;;;;;;5098398;28;20039;-79
2022/01/24 09:42:17;;;;;;;28.75;20.80;;;5.10;88.90;;;;;;5081158;28;20274;-79
2022/01/24 09:44:45;;;;;;;32.10;20.70;;;5.20;89.20;;;;;;5081325;28;20506;-79
2022/01/24 09:47:16;;;;;;;30.40;19.92;;;5.20;89.40;;;;;;5097491;28;20043;-80
2022/01/24 09:49:45;;;;;;;30.88;20.30;;;5.20;89.40;;;;;;5080529;28;20035;-79
2022/01/24 09:52:10;;;;;;;31.90;20.70;;;5.20;89.60;;;;;;5097706;28;20132;-79
2022/01/24 09:54:36;;;;;;;32.25;21.92;;;5.30;89.60;;;;;;5080621;28;20478;-79
2022/01/24 09:57:02;;;;;;;32.90;21.27;;;5.20;88.40;;;;;;5081060;28;20044;-82
2022/01/24 09:59:29;;;;;;;33.38;21.33;;;5.20;88.50;;;;;;5064331;28;20475;-83
2022/01/24 10:01:55;;;;;;;31.83;20.70;;;5.20;88.50;;;;;;5064158;28;20047;-82
2022/01/24 10:04:25;;;;;;;31.33;20.25;;;5.30;87.90;;;;;;5080390;28;20058;-80
2022/01/24 10:07:12;;;;;;;30.73;20.40;;;5.30;88.10;;;;;;5081223;28;20040;-79
2022/01/24 10:09:50;;;;;;;33.15;21.42;;;5.30;87.90;;;;;;5064066;28;20078;-80
2022/01/24 10:12:33;;;;;;;27.98;19.13;;;5.30;88.00;;;;;;5097372;28;20123;-78
2022/01/24 10:17:47;;;;;;;31.40;20.77;;;5.30;88.90;;;;;;5097302;28;20051;-79
2022/01/24 10:20:20;;;;;;;33.85;20.65;;;5.30;88.90;;;;;;5080359;28;20407;-78
2022/01/24 10:23:04;;;;;;;31.95;20.58;;;5.40;89.30;;;;;;5079838;28;20085;-79
2022/01/24 10:25:31;;;;;;;33.17;21.80;;;5.40;89.20;;;;;;5080300;28;20408;-79
2022/01/24 10:28:02;;;;;;;31.65;21.33;;;5.30;89.10;;;;;;5079802;28;20058;-80
2022/01/24 10:30:29;;;;;;;34.38;22.48;;;5.40;89.30;;;;;;5096903;28;20043;-80
2022/01/24 10:32:56;;;;;;;39.13;24.55;;;5.40;89.10;;;;;;5096865;28;20048;-80
2022/01/24 10:35:32;;;;;;;35.17;24.60;;;5.40;89.30;;;;;;5097067;28;20048;-79
2022/01/24 10:38:26;;;;;;;32.83;22.80;;;5.40;89.20;;;;;;5080207;28;20486;-80
2022/01/24 10:41:11;;;;;;;28.90;20.02;;;5.30;87.80;;;;;;5096765;28;20043;-80
2022/01/24 10:43:40;;;;;;;30.90;20.73;;;5.30;88.20;;;;;;5096556;28;20399;-80
2022/01/24 10:46:07;;;;;;;30.52;21.27;;;5.30;88.50;;;;;;5097040;28;20392;-80
2022/01/24 10:48:42;;;;;;;33.65;21.67;;;5.40;88.10;;;;;;5062747;28;20122;-81
2022/01/24 10:51:15;;;;;;;31.85;21.30;;;5.40;88.60;;;;;;5079729;28;20032;-81
2022/01/24 10:53:45;;;;;;;32.70;20.13;;;5.40;88.10;;;;;;5096505;28;20391;-81
2022/01/24 10:56:31;;;;;;;32.45;20.52;;;5.40;87.70;;;;;;5079472;28;20047;-82
2022/01/24 10:59:21;;;;;;;32.03;20.35;;;5.40;88.60;;;;;;5080931;28;20054;-81
2022/01/24 11:01:51;;;;;;;31.25;20.30;;;5.40;87.30;;;;;;5079337;28;20046;-82
2022/01/24 11:04:18;;;;;;;29.80;19.02;;;5.40;88.00;;;;;;5096306;28;20055;-81
2022/01/24 11:06:47;;;;;;;30.33;19.13;;;5.40;88.40;;;;;;5096056;28;20082;-81
2022/01/24 11:09:32;;;;;;;32.05;20.60;;;5.40;88.30;;;;;;5096013;28;20047;-82
2022/01/24 11:12:08;;;;;;;33.47;21.27;;;5.40;88.50;;;;;;5096727;28;20108;-81
2022/01/24 11:14:36;;;;;;;31.95;20.38;;;5.40;88.40;;;;;;5096055;28;20095;-81
2022/01/24 11:17:03;;;;;;;32.83;20.70;;;5.50;88.00;;;;;;5062542;28;20043;-82
2022/01/24 11:19:43;;;;;;;30.48;19.27;;;5.50;88.00;;;;;;5096371;28;20058;-81
2022/01/24 11:22:22;;;;;;;30.05;20.13;;;5.50;87.00;;;;;;5081093;28;20051;-81
2022/01/24 11:24:55;;;;;;;32.15;20.25;;;5.50;87.60;;;;;;5078761;28;20028;-81
2022/01/24 11:27:21;;;;;;;32.30;20.90;;;5.50;87.30;;;;;;5078918;28;20058;-81
2022/01/24 11:30:00;;;;;;;31.45;20.23;;;5.50;87.70;;;;;;5078969;28;20031;-81
2022/01/24 11:32:40;;;;;;;29.98;19.55;;;5.50;88.20;;;;;;5095805;28;20122;-81
2022/01/24 11:35:29;;;;;;;29.83;20.45;;;5.50;88.30;;;;;;5093578;28;20518;-81
2022/01/24 11:37:56;;;;;;;32.15;19.42;;;5.50;87.70;;;;;;5095399;28;20122;-81
2022/01/24 11:40:23;;;;;;;32.45;21.20;;;5.50;88.20;;;;;;5095635;28;20548;-81
2022/01/24 11:42:50;;;;;;;28.67;20.23;;;5.50;87.60;;;;;;5062022;28;20043;-81
2022/01/24 11:45:32;;;;;;;28.58;19.52;;;5.50;87.30;;;;;;5062398;28;20069;-81
2022/01/24 11:48:17;;;;;;;30.83;20.30;;;5.60;88.00;;;;;;5095679;28;20501;-81
2022/01/24 11:51:00;;;;;;;28.58;19.98;;;5.60;87.60;;;;;;5095704;28;20031;-81
2022/01/24 11:53:28;;;;;;;36.33;21.10;;;5.60;87.90;;;;;;5095615;28;20048;-81
2022/01/24 11:55:55;;;;;;;28.88;19.17;;;5.60;87.60;;;;;;5078936;28;20044;-81
2022/01/24 11:58:32;;;;;;;32.50;20.83;;;5.60;87.50;;;;;;5078770;28;20042;-81
2022/01/24 12:01:03;;;;;;;32.92;20.77;;;5.60;87.30;;;;;;5078363;28;20042;-81
2022/01/24 12:03:30;;;;;;;33.72;22.45;;;5.60;87.40;;;;;;5078609;28;20077;-81
2022/01/24 12:06:08;;;;;;;31.95;21.30;;;5.60;87.40;;;;;;5078241;28;20047;-81
2022/01/24 12:08:42;;;;;;;32.92;21.30;;;5.60;87.80;;;;;;5095466;28;20071;-81
2022/01/24 12:11:13;;;;;;;34.28;21.50;;;5.60;87.50;;;;;;5078607;28;20039;-81
2022/01/24 12:13:45;;;;;;;40.58;24.67;;;5.60;87.70;;;;;;5095351;28;20055;-81
2022/01/24 12:16:14;;;;;;;44.45;28.85;;;5.60;87.70;;;;;;5094964;28;20051;-81
2022/01/24 12:18:40;;;;;;;38.42;24.48;;;5.60;87.60;;;;;;5095244;28;20046;-81
2022/01/24 12:21:21;;;;;;;34.35;22.20;;;5.60;86.40;;;;;;5095488;28;20039;-81
2022/01/24 12:23:52;;;;;;;39.05;23.45;;;5.60;86.10;;;;;;5078318;28;20096;-81
2022/01/24 12:26:18;;;;;;;36.53;22.33;;;5.60;86.30;;;;;;5095044;28;20484;-81
2022/01/24 12:28:43;;;;;;;35.17;23.02;;;5.60;86.80;;;;;;5095071;28;20038;-81
2022/01/24 12:31:13;;;;;;;36.85;23.95;;;5.60;86.40;;;;;;5078543;28;20059;-81
2022/01/24 12:33:39;;;;;;;38.20;22.10;;;5.60;86.80;;;;;;5095140;28;20043;-82
2022/01/24 12:36:16;;;;;;;32.30;20.42;;;5.60;86.30;;;;;;5095055;28;20054;-81
2022/01/24 12:38:52;;;;;;;32.70;20.13;;;5.60;85.70;;;;;;5078313;28;20039;-81
2022/01/24 12:41:29;;;;;;;34.10;22.38;;;5.60;86.40;;;;;;5095042;28;20040;-81
2022/01/24 12:46:32;;;;;;;33.55;22.17;;;5.60;86.70;;;;;;5094940;28;20453;-81
2022/01/24 12:49:00;;;;;;;41.75;24.20;;;5.60;86.50;;;;;;5094920;28;20045;-81
2022/01/24 12:51:28;;;;;;;33.13;21.73;;;5.60;86.50;;;;;;5094909;28;20060;-81
2022/01/24 12:53:55;;;;;;;35.03;22.48;;;5.60;86.70;;;;;;5095121;28;20403;-81
2022/01/24 12:56:26;;;;;;;37.60;23.33;;;5.60;86.00;;;;;;5094893;28;20050;-81
2022/01/24 12:58:52;;;;;;;43.00;23.83;;;5.60;85.90;;;;;;5078064;28;20047;-81
2022/01/24 13:01:25;;;;;;;34.67;22.63;;;5.60;85.60;;;;;;5099582;28;20067;-81
2022/01/24 13:03:59;;;;;;;35.22;21.48;;;5.60;86.00;;;;;;5095761;28;20043;-81
2022/01/24 13:06:28;;;;;;;35.20;21.30;;;5.60;86.00;;;;;;5094722;28;20048;-81
2022/01/24 13:09:24;;;;;;;32.05;19.30;;;5.60;86.00;;;;;;5095060;28;20383;-81
2022/01/24 13:12:00;;;;;;;34.45;22.15;;;5.60;86.40;;;;;;5079532;28;20039;-81
2022/01/24 13:14:43;;;;;;;41.85;25.02;;;5.70;86.30;;;;;;5098649;28;20479;-81
2022/01/24 13:22:56;;;;;;;43.40;26.38;;;5.60;85.00;;;;;;5098344;28;20042;-81
2022/01/24 13:25:30;;;;;;;41.53;27.75;;;5.60;84.50;;;;;;5081524;28;20036;-81
2022/01/24 13:28:07;;;;;;;43.03;27.30;;;5.60;84.20;;;;;;5098363;28;20122;-81
2022/01/24 13:30:42;;;;;;;40.45;27.60;;;5.60;84.40;;;;;;5098461;28;20483;-80
2022/01/24 13:33:15;;;;;;;43.63;27.60;;;5.60;84.70;;;;;;5081529;28;20085;-81
2022/01/24 13:35:47;;;;;;;42.70;28.45;;;5.60;84.90;;;;;;5098478;28;20051;-81
2022/01/24 13:38:19;;;;;;;42.83;27.60;;;5.60;85.10;;;;;;5081564;28;20139;-80
2022/01/24 13:41:00;;;;;;;39.90;25.98;;;5.60;84.50;;;;;;5098111;28;20044;-81
2022/01/24 13:43:50;;;;;;;41.65;26.75;;;5.60;84.80;;;;;;5098065;28;20043;-81
2022/01/24 13:46:17;;;;;;;37.78;23.77;;;5.60;84.90;;;;;;5081184;28;20526;-81
2022/01/24 13:48:47;;;;;;;36.75;23.80;;;5.60;85.30;;;;;;5081130;28;20074;-81
2022/01/24 13:51:19;;;;;;;40.85;25.35;;;5.60;84.90;;;;;;5097927;28;20042;-81
2022/01/24 13:53:56;;;;;;;42.72;26.90;;;5.60;85.20;;;;;;5081073;28;20126;-81
2022/01/24 13:56:35;;;;;;;39.35;25.55;;;5.50;85.40;;;;;;5097781;28;20035;-81
2022/01/24 13:59:25;;;;;;;39.63;23.83;;;5.60;85.50;;;;;;5081002;28;20040;-80
2022/01/24 14:02:25;;;;;;;36.67;24.48;;;5.60;85.70;;;;;;5098061;28;20044;-82
2022/01/24 14:04:53;;;;;;;36.90;23.45;;;5.60;85.80;;;;;;5080461;28;20056;-81
2022/01/24 14:07:41;;;;;;;42.00;26.20;;;5.60;85.90;;;;;;5080876;28;20038;-80
2022/01/24 14:10:12;;;;;;;41.63;26.58;;;5.60;85.80;;;;;;5080789;28;20032;-80
2022/01/24 14:12:44;;;;;;;40.10;26.33;;;5.50;85.70;;;;;;5080917;28;20043;-79
2022/01/24 14:15:22;;;;;;;40.03;25.17;;;5.50;85.90;;;;;;5080881;28;20040;-79
2022/01/24 14:20:32;;;;;;;48.78;30.33;;;5.50;85.50;;;;;;5097422;28;20096;-79
2022/01/24 14:22:58;;;;;;;43.78;28.38;;;5.50;85.50;;;;;;5079679;28;20040;-79
2022/01/24 14:25:26;;;;;;;46.83;29.40;;;5.50;85.50;;;;;;5097265;28;20444;-79
2022/01/24 14:27:54;;;;;;;45.80;30.63;;;5.50;85.00;;;;;;5097396;28;20038;-79
2022/01/24 14:30:26;;;;;;;41.55;27.70;;;5.50;85.10;;;;;;5063591;28;20216;-79
2022/01/24 14:33:24;;;;;;;44.22;28.55;;;5.50;85.10;;;;;;5097085;28;20043;-79
2022/01/24 14:36:09;;;;;;;42.15;26.98;;;5.50;84.90;;;;;;5096983;28;20123;-79
2022/01/24 14:38:44;;;;;;;46.85;29.60;;;5.50;84.90;;;;;;5080491;28;20149;-79
2022/01/24 14:41:26;;;;;;;48.75;29.02;;;5.40;85.00;;;;;;5097237;28;20418;-79
2022/01/24 14:46:39;;;;;;;38.72;24.55;;;5.50;84.60;;;;;;5097063;28;20396;-79
2022/01/24 14:49:08;;;;;;;42.30;28.38;;;5.50;84.60;;;;;;5079985;28;20120;-79
2022/01/24 14:51:37;;;;;;;42.42;27.17;;;5.40;84.80;;;;;;5079862;28;20483;-79
2022/01/24 14:54:18;;;;;;;43.90;28.98;;;5.40;85.20;;;;;;5096728;28;20043;-79
2022/01/24 14:56:47;;;;;;;48.78;31.45;;;5.40;85.10;;;;;;5080073;28;20051;-79
2022/01/24 14:59:13;;;;;;;44.25;30.02;;;5.40;85.20;;;;;;5096820;28;20040;-79
2022/01/24 15:01:39;;;;;;;45.42;30.52;;;5.40;85.40;;;;;;5096748;28;20488;-79